Time;durP1;ratioP1;P1;durP2;ratioP2;P2;SDS_P1;SDS_P2;PMS_P1;PMS_P2;Temp;Humidity;BMP_temperature;BMP_pressure;BME280_temperature;BME280_humidity;BME280_pressure;Samples;Min_cycle;Max_cycle;Signal;HPM_P1;HPM_P2
2021/05/05 06:16:20;;;;;;;2.28;1.50;;;;;;;;;;13058477;22;19995;-83
2021/05/05 06:27:34;;;;;;;2.70;1.50;;;;;;;;;;12128962;22;18246551;-85
2021/05/05 06:50:41;;;;;;;1.85;1.45;;;;;;;;;;12856033;23;20072;-86
2021/05/05 06:56:10;;;;;;;2.85;1.55;;;;;;;;;;12924069;23;20004;-85
2021/05/05 07:07:30;;;;;;;1.50;1.00;;;;;;;;;;12900190;23;20054;-86
2021/05/05 07:24:49;;;;;;;4.43;1.13;;;;;;;;;;12884384;23;20009;-88
2021/05/05 07:30:32;;;;;;;2.78;1.23;;;;;;;;;;12628149;23;20046;-88
2021/05/05 07:41:55;;;;;;;2.00;1.27;;;;;;;;;;12622158;23;20009;-87
2021/05/05 08:04:07;;;;;;;;;;;;;;;;;;12564877;23;20006;-87
2021/05/05 09:00:12;;;;;;;4.55;1.20;;;;;;;;;;12562458;23;20011;-87
2021/05/05 09:34:09;;;;;;;4.00;1.52;;;;;;;;;;12465960;23;20015;-86
2021/05/05 09:39:21;;;;;;;3.20;1.30;;;;;;;;;;12555566;23;20474;-89
2021/05/05 09:44:55;;;;;;;3.40;1.27;;;;;;;;;;12538408;23;20075;-86
2021/05/05 09:50:17;;;;;;;3.53;1.40;;;;;;;;;;12815479;23;20021;-84
2021/05/05 09:55:26;;;;;;;2.55;1.27;;;;;;;;;;12834540;23;20035;-87
2021/05/05 10:00:49;;;;;;;2.88;1.17;;;;;;;;;;12761265;23;20110;-87
2021/05/05 10:06:22;;;;;;;1.85;1.10;;;;;;;;;;12778808;23;20001;-85
2021/05/05 10:11:33;;;;;;;2.72;1.00;;;;;;;;;;12739055;23;20014;-85
2021/05/05 10:16:55;;;;;;;2.33;1.20;;;;;;;;;;12803142;23;20059;-86
2021/05/05 10:22:22;;;;;;;3.95;1.38;;;;;;;;;;12842320;23;20008;-86
2021/05/05 10:27:47;;;;;;;2.50;1.35;;;;;;;;;;12843754;23;20040;-86
2021/05/05 10:32:48;;;;;;;3.65;1.13;;;;;;;;;;12843435;23;20004;-87
2021/05/05 10:37:58;;;;;;;3.05;1.33;;;;;;;;;;12816392;23;20032;-87
2021/05/05 10:43:06;;;;;;;2.73;1.13;;;;;;;;;;12847771;23;20005;-86
2021/05/05 10:48:18;;;;;;;3.30;1.48;;;;;;;;;;12824135;23;20247;-86
2021/05/05 10:53:55;;;;;;;2.85;1.30;;;;;;;;;;12851242;23;20062;-87
2021/05/05 10:59:12;;;;;;;;;;;;;;;;;;12874849;23;20092;-86
2021/05/05 11:04:22;;;;;;;2.28;1.23;;;;;;;;;;12849856;23;19943;-86
2021/05/05 11:09:55;;;;;;;3.10;1.10;;;;;;;;;;12786145;23;20004;-86
2021/05/05 11:15:05;;;;;;;3.63;1.40;;;;;;;;;;12853335;23;20456;-86
2021/05/05 11:20:58;;;;;;;3.17;1.00;;;;;;;;;;12848654;23;20012;-87
2021/05/05 11:26:24;;;;;;;3.22;0.90;;;;;;;;;;12538856;23;20094;-87
2021/05/05 11:43:18;;;;;;;1.52;0.80;;;;;;;;;;12594001;23;20063;-86
2021/05/05 12:05:36;;;;;;;1.63;0.80;;;;;;;;;;12744568;23;20013;-87
2021/05/05 12:10:49;;;;;;;2.50;0.70;;;;;;;;;;12732574;23;20344;-87
2021/05/05 12:21:40;;;;;;;1.48;0.73;;;;;;;;;;12887119;23;20024;-85
2021/05/05 12:26:41;;;;;;;3.08;0.80;;;;;;;;;;12902043;23;20001;-86
2021/05/05 12:31:45;;;;;;;1.67;0.88;;;;;;;;;;12910523;23;20009;-86
2021/05/05 12:36:52;;;;;;;1.50;0.80;;;;;;;;;;12897685;23;20135;-85
2021/05/05 12:41:54;;;;;;;1.63;0.90;;;;;;;;;;12897486;23;20028;-87
2021/05/05 12:46:55;;;;;;;3.28;0.80;;;;;;;;;;12907825;23;20009;-87
2021/05/05 12:51:57;;;;;;;2.67;1.15;;;;;;;;;;12899270;23;20009;-88
2021/05/05 12:56:58;;;;;;;2.17;0.85;;;;;;;;;;12901539;23;20047;-86
2021/05/05 13:02:10;;;;;;;2.28;0.80;;;;;;;;;;12901251;23;20005;-89
2021/05/05 13:07:47;;;;;;;3.95;1.42;;;;;;;;;;12884685;23;20421;-86
2021/05/05 13:13:18;;;;;;;4.13;1.63;;;;;;;;;;12878851;23;20009;-86
2021/05/05 13:34:47;;;;;;;4.35;1.48;;;;;;;;;;12883578;23;20008;-87
2021/05/05 13:39:48;;;;;;;4.32;1.40;;;;;;;;;;12902721;23;19996;-83
2021/05/05 13:44:54;;;;;;;3.65;1.17;;;;;;;;;;12890506;23;20076;-85
2021/05/05 13:50:16;;;;;;;3.55;1.42;;;;;;;;;;12899594;23;20015;-86
2021/05/05 13:55:42;;;;;;;3.50;1.30;;;;;;;;;;12870566;23;20012;-84
2021/05/05 14:00:43;;;;;;;3.22;1.23;;;;;;;;;;12910277;23;20092;-83
2021/05/05 14:05:49;;;;;;;4.72;1.40;;;;;;;;;;12909823;23;20491;-85
2021/05/05 14:10:51;;;;;;;4.68;1.52;;;;;;;;;;12900266;23;20440;-86
2021/05/05 14:15:56;;;;;;;3.78;1.35;;;;;;;;;;12879580;23;20009;-86
2021/05/05 14:21:01;;;;;;;5.25;1.60;;;;;;;;;;12906127;23;20119;-85
2021/05/05 14:26:02;;;;;;;3.03;1.10;;;;;;;;;;12890255;23;20004;-85
2021/05/05 14:31:03;;;;;;;2.90;1.20;;;;;;;;;;12939476;23;20038;-87
2021/05/05 14:36:05;;;;;;;4.55;1.52;;;;;;;;;;12941803;23;20015;-86
2021/05/05 14:41:41;;;;;;;4.55;1.70;;;;;;;;;;12943872;23;20005;-83
2021/05/05 14:52:15;;;;;;;5.72;1.67;;;;;;;;;;12957784;23;20012;-85
2021/05/05 14:57:19;;;;;;;7.05;1.95;;;;;;;;;;12953059;22;20000;-86
2021/05/05 15:02:20;;;;;;;5.80;2.35;;;;;;;;;;12952540;23;20027;-83
2021/05/05 15:07:21;;;;;;;4.40;1.48;;;;;;;;;;12946548;22;20059;-88
2021/05/05 15:34:07;;;;;;;2.75;1.25;;;;;;;;;;12847512;23;20173;-86
2021/05/05 15:39:19;;;;;;;4.63;1.38;;;;;;;;;;12939003;22;20011;-84
2021/05/05 15:44:55;;;;;;;6.03;1.73;;;;;;;;;;12946177;23;20061;-83
2021/05/05 15:50:06;;;;;;;5.38;1.98;;;;;;;;;;12945174;23;20000;-82
2021/05/05 15:55:23;;;;;;;5.63;1.80;;;;;;;;;;12949158;23;20012;-83
2021/05/05 16:17:26;;;;;;;3.78;1.52;;;;;;;;;;12941436;22;20000;-87
2021/05/05 16:28:21;;;;;;;5.28;1.83;;;;;;;;;;12926228;22;20309;-86
2021/05/05 16:54:47;;;;;;;4.00;1.60;;;;;;;;;;12967837;23;20347;-86
2021/05/05 17:09:59;;;;;;;4.90;1.70;;;;;;;;;;12963920;22;20008;-88
2021/05/05 17:20:29;;;;;;;5.32;1.80;;;;;;;;;;12952958;22;20016;-87
2021/05/05 17:25:37;;;;;;;4.07;1.58;;;;;;;;;;12946404;23;20480;-86
2021/05/05 17:51:59;;;;;;;4.32;1.75;;;;;;;;;;12943618;22;20012;-87
2021/05/05 18:40:23;;;;;;;3.38;1.35;;;;;;;;;;12933065;22;20074;-85
